createdAt,value
2019-05-20T00:00:48.210Z,27.27
2019-05-20T00:03:20.981Z,29.30
2019-05-20T00:05:53.769Z,28.30
2019-05-20T00:08:26.576Z,31.23
2019-05-20T00:10:59.402Z,32.00
2019-05-20T00:13:32.138Z,33.42
2019-05-20T00:16:04.879Z,29.05
2019-05-20T00:18:37.607Z,31.00
2019-05-20T00:21:10.530Z,35.55
2019-05-20T00:23:43.236Z,41.68
2019-05-20T00:26:17.202Z,44.10
2019-05-20T00:28:49.997Z,49.27
2019-05-20T00:31:23.778Z,50.98
2019-05-20T00:33:56.462Z,51.77
2019-05-20T00:36:29.184Z,52.62
2019-05-20T00:39:19.348Z,53.70
2019-05-20T00:41:53.153Z,52.60
2019-05-20T00:44:25.887Z,51.15
2019-05-20T00:46:58.585Z,48.63
2019-05-20T00:49:31.256Z,39.10
2019-05-20T00:52:04.021Z,35.17
2019-05-20T00:54:36.979Z,33.20
2019-05-20T00:57:09.824Z,32.28
2019-05-20T00:59:42.549Z,37.33
2019-05-20T01:02:15.224Z,38.35
2019-05-20T01:04:47.840Z,38.75
2019-05-20T01:07:20.619Z,40.50
2019-05-20T01:09:54.550Z,40.38
2019-05-20T01:12:27.232Z,38.15
2019-05-20T01:14:59.861Z,36.88
2019-05-20T01:17:32.615Z,38.42
2019-05-20T01:20:05.349Z,42.08
2019-05-20T01:22:38.244Z,41.88
2019-05-20T01:25:12.289Z,41.48
2019-05-20T01:27:44.946Z,39.90
2019-05-20T01:30:19.164Z,42.40
2019-05-20T01:32:51.853Z,48.50
2019-05-20T01:35:24.488Z,53.17
2019-05-20T01:37:57.324Z,51.68
2019-05-20T01:40:29.967Z,54.93
2019-05-20T01:43:02.728Z,52.15
2019-05-20T01:45:35.776Z,58.95
2019-05-20T01:48:09.722Z,64.87
2019-05-20T01:50:43.575Z,68.45
2019-05-20T01:53:16.273Z,63.28
2019-05-20T01:55:48.965Z,69.05
2019-05-20T01:58:22.993Z,78.40
2019-05-20T02:00:55.559Z,74.53
2019-05-20T02:03:31.765Z,87.60
2019-05-20T02:06:04.552Z,90.60
2019-05-20T02:08:37.516Z,93.67
2019-05-20T02:11:11.297Z,99.37
2019-05-20T02:14:00.840Z,102.22
2019-05-20T02:16:33.690Z,102.40
2019-05-20T02:19:06.444Z,105.85
2019-05-20T02:21:39.153Z,107.60
2019-05-20T02:24:31.394Z,113.40
2019-05-20T02:27:04.321Z,121.35
2019-05-20T02:29:39.136Z,119.53
2019-05-20T02:32:11.963Z,121.65
2019-05-20T02:34:44.828Z,126.70
2019-05-20T02:37:21.432Z,127.55
2019-05-20T02:39:54.152Z,132.45
2019-05-20T02:42:26.825Z,130.78
2019-05-20T02:44:59.469Z,134.60
2019-05-20T02:47:33.450Z,136.68
2019-05-20T02:50:07.884Z,135.22
2019-05-20T02:52:41.032Z,130.30
2019-05-20T02:55:14.874Z,130.52
2019-05-20T02:57:47.537Z,133.00
2019-05-20T03:00:22.110Z,135.55
2019-05-20T03:02:54.685Z,129.78
2019-05-20T03:05:27.310Z,131.05
2019-05-20T03:07:59.989Z,129.82
2019-05-20T03:10:32.616Z,132.35
2019-05-20T03:13:06.421Z,126.95
2019-05-20T03:15:39.110Z,122.55
2019-05-20T03:18:11.754Z,126.45
2019-05-20T03:20:44.445Z,122.53
2019-05-20T03:23:18.348Z,120.72
2019-05-20T03:25:51.096Z,122.72
2019-05-20T03:28:26.129Z,121.82
2019-05-20T03:30:58.909Z,124.30
2019-05-20T03:33:31.665Z,125.62
2019-05-20T03:36:04.441Z,127.32
2019-05-20T03:38:37.096Z,127.38
2019-05-20T03:41:09.807Z,130.72
2019-05-20T03:43:42.515Z,128.12
2019-05-20T03:46:16.737Z,123.95
2019-05-20T03:48:49.376Z,125.78
2019-05-20T03:51:22.029Z,128.18
2019-05-20T03:53:54.695Z,122.47
2019-05-20T03:56:27.371Z,125.22
2019-05-20T03:59:00.122Z,120.42
2019-05-20T04:01:32.765Z,120.82
2019-05-20T04:04:07.236Z,120.30
2019-05-20T04:06:42.870Z,118.57
2019-05-20T04:09:15.568Z,121.02
2019-05-20T04:11:50.068Z,120.47
2019-05-20T04:14:22.811Z,112.68
2019-05-20T04:16:55.425Z,116.57
2019-05-20T04:19:28.157Z,112.40
2019-05-20T04:22:00.861Z,113.22
2019-05-20T04:24:34.660Z,111.85
2019-05-20T04:27:11.071Z,111.50
2019-05-20T04:29:43.896Z,115.60
2019-05-20T04:32:16.704Z,114.62
2019-05-20T04:34:49.521Z,112.28
2019-05-20T04:37:22.234Z,113.40
2019-05-20T04:39:54.896Z,110.85
2019-05-20T04:45:35.682Z,108.50
2019-05-20T04:48:08.560Z,109.75
2019-05-20T04:50:42.338Z,107.22
2019-05-20T04:53:16.133Z,106.07
2019-05-20T04:55:48.843Z,107.25
2019-05-20T04:58:21.936Z,108.60
2019-05-20T05:00:58.390Z,101.70
2019-05-20T05:03:31.283Z,98.35
2019-05-20T05:06:03.956Z,99.67
2019-05-20T05:08:36.952Z,94.25
2019-05-20T05:11:09.707Z,95.90
2019-05-20T05:13:43.497Z,97.33
2019-05-20T05:16:16.241Z,95.72
2019-05-20T05:18:48.898Z,100.65
2019-05-20T05:21:21.883Z,96.00
2019-05-20T05:23:59.335Z,96.00
2019-05-20T05:26:30.166Z,94.87
2019-05-20T05:29:02.824Z,95.83
2019-05-20T05:31:35.640Z,93.62
2019-05-20T05:34:08.308Z,89.75
2019-05-20T05:36:41.983Z,93.27
2019-05-20T05:39:14.686Z,97.50
2019-05-20T05:41:47.337Z,92.30
2019-05-20T05:44:21.078Z,95.07
2019-05-20T05:46:53.917Z,83.85
2019-05-20T05:49:26.657Z,85.95
2019-05-20T05:51:59.444Z,90.17
2019-05-20T05:54:32.267Z,82.15
2019-05-20T05:57:04.833Z,86.85
2019-05-20T05:59:37.586Z,78.75
2019-05-20T06:02:10.258Z,77.45
2019-05-20T06:04:43.128Z,75.22
2019-05-20T06:07:15.919Z,77.85
2019-05-20T06:09:48.695Z,75.00
2019-05-20T06:12:22.522Z,77.42
2019-05-20T06:14:55.858Z,82.53
2019-05-20T06:17:28.658Z,83.25
2019-05-20T06:20:03.709Z,84.60
2019-05-20T06:22:36.531Z,78.92
2019-05-20T06:25:09.970Z,79.35
2019-05-20T06:27:42.787Z,74.92
2019-05-20T06:30:19.422Z,76.75
2019-05-20T06:32:52.211Z,76.17
2019-05-20T06:35:24.964Z,80.05
2019-05-20T06:37:59.899Z,78.78
2019-05-20T06:40:34.439Z,78.50
2019-05-20T06:43:08.919Z,79.35
2019-05-20T06:45:41.698Z,79.67
2019-05-20T06:48:14.412Z,80.03
2019-05-20T06:50:48.267Z,79.05
2019-05-20T06:53:22.646Z,77.05
2019-05-20T06:55:55.510Z,73.75
2019-05-20T06:58:28.415Z,73.28
2019-05-20T07:01:01.321Z,69.60
2019-05-20T07:03:34.283Z,71.33
2019-05-20T07:06:06.939Z,68.33
2019-05-20T07:08:39.764Z,68.33
2019-05-20T07:11:16.150Z,72.10
2019-05-20T07:13:49.064Z,75.22
2019-05-20T07:16:22.022Z,74.53
2019-05-20T07:18:56.664Z,73.62
2019-05-20T07:21:29.912Z,73.90
2019-05-20T07:24:03.108Z,78.62
2019-05-20T07:26:35.959Z,81.87
2019-05-20T07:29:09.366Z,75.15
2019-05-20T07:31:42.219Z,78.57
2019-05-20T07:34:14.988Z,76.47
2019-05-20T07:37:02.486Z,76.10
2019-05-20T07:39:25.173Z,72.78
2019-05-20T07:41:58.385Z,72.47
2019-05-20T07:44:31.190Z,76.10
2019-05-20T07:47:04.507Z,76.50
2019-05-20T07:49:37.664Z,78.67
2019-05-20T07:52:11.894Z,72.85
2019-05-20T07:55:07.088Z,77.92
2019-05-20T07:57:42.600Z,73.97
2019-05-20T08:00:15.511Z,74.10
2019-05-20T08:02:48.595Z,72.67
2019-05-20T08:05:21.496Z,74.12
2019-05-20T08:07:55.591Z,72.40
2019-05-20T08:10:28.280Z,72.47
2019-05-20T08:13:01.120Z,68.67
2019-05-20T08:15:33.853Z,70.10
2019-05-20T08:18:09.657Z,71.50
2019-05-20T08:20:42.531Z,73.30
2019-05-20T08:23:15.254Z,74.03
2019-05-20T08:25:48.057Z,72.58
2019-05-20T08:28:20.700Z,68.95
2019-05-20T08:30:53.375Z,68.62
2019-05-20T08:33:28.038Z,67.78
2019-05-20T08:36:01.916Z,65.35
2019-05-20T08:38:36.066Z,68.67
2019-05-20T08:41:08.707Z,67.75
2019-05-20T08:43:41.565Z,69.32
2019-05-20T08:46:14.410Z,67.25
2019-05-20T08:48:47.042Z,71.37
2019-05-20T08:51:19.793Z,72.55
2019-05-20T08:53:52.614Z,71.28
2019-05-20T08:56:26.590Z,72.25
2019-05-20T08:58:59.277Z,70.52
2019-05-20T09:01:34.811Z,69.12
2019-05-20T09:04:07.655Z,67.67
2019-05-20T09:06:42.501Z,65.65
2019-05-20T09:09:17.184Z,67.30
2019-05-20T09:11:51.711Z,67.60
2019-05-20T09:14:24.511Z,65.22
2019-05-20T09:16:57.251Z,63.92
2019-05-20T09:19:30.168Z,65.00
2019-05-20T09:22:03.309Z,66.47
2019-05-20T09:24:36.077Z,61.30
2019-05-20T09:27:10.201Z,60.10
2019-05-20T09:29:42.999Z,59.42
2019-05-20T09:32:15.906Z,58.02
2019-05-20T09:34:50.385Z,57.43
2019-05-20T09:37:23.325Z,59.23
2019-05-20T09:39:57.957Z,58.83
2019-05-20T09:42:30.814Z,58.73
2019-05-20T09:45:04.378Z,54.55
2019-05-20T09:47:38.565Z,54.77
2019-05-20T09:50:11.271Z,51.75
2019-05-20T09:52:44.185Z,47.67
2019-05-20T09:55:16.962Z,51.28
2019-05-20T09:57:50.104Z,50.88
2019-05-20T10:00:23.243Z,51.00
2019-05-20T10:02:56.215Z,52.38
2019-05-20T10:05:28.964Z,51.98
2019-05-20T10:08:01.688Z,50.48
2019-05-20T10:10:34.691Z,58.30
2019-05-20T10:13:08.365Z,57.98
2019-05-20T10:15:42.794Z,60.70
2019-05-20T10:18:15.488Z,57.85
2019-05-20T10:20:48.200Z,59.75
2019-05-20T10:23:23.330Z,62.27
2019-05-20T10:25:56.186Z,60.20
2019-05-20T10:28:28.972Z,58.50
2019-05-20T10:31:01.859Z,58.63
2019-05-20T10:33:36.942Z,57.08
2019-05-20T10:36:11.058Z,55.17
2019-05-20T10:38:57.888Z,53.85
2019-05-20T10:41:18.400Z,53.68
2019-05-20T10:43:51.552Z,60.67
2019-05-20T10:46:27.107Z,56.18
2019-05-20T10:49:00.059Z,56.42
2019-05-20T10:51:34.772Z,56.08
2019-05-20T10:54:07.786Z,58.83
2019-05-20T10:56:42.346Z,59.23
2019-05-20T10:59:15.141Z,60.15
2019-05-20T11:01:47.847Z,59.00
2019-05-20T11:04:21.687Z,58.90
2019-05-20T11:06:54.910Z,58.05
2019-05-20T11:09:27.776Z,57.83
2019-05-20T11:12:00.544Z,57.20
2019-05-20T11:14:36.316Z,59.18
2019-05-20T11:17:14.747Z,60.12
2019-05-20T11:19:45.436Z,61.68
2019-05-20T11:22:19.957Z,60.43
2019-05-20T11:24:52.955Z,59.20
2019-05-20T11:27:25.666Z,57.00
2019-05-20T11:29:58.496Z,57.62
2019-05-20T11:32:31.346Z,59.15
2019-05-20T11:35:04.407Z,57.73
2019-05-20T11:37:37.292Z,54.88
2019-05-20T11:40:11.147Z,58.52
2019-05-20T11:42:44.791Z,57.62
2019-05-20T11:45:18.939Z,57.17
2019-05-20T11:47:51.671Z,59.27
2019-05-20T11:50:25.528Z,57.40
2019-05-20T11:52:58.245Z,56.63
2019-05-20T11:55:31.085Z,58.30
2019-05-20T11:58:15.168Z,58.28
2019-05-20T12:00:38.715Z,59.00
2019-05-20T12:03:12.579Z,59.42
2019-05-20T12:05:45.428Z,63.08
2019-05-20T12:08:19.371Z,62.53
2019-05-20T12:10:52.048Z,63.75
2019-05-20T12:13:24.818Z,59.42
2019-05-20T12:15:59.303Z,58.98
2019-05-20T12:18:33.334Z,60.65
2019-05-20T12:21:06.017Z,55.60
2019-05-20T12:23:38.739Z,53.60
2019-05-20T12:26:11.520Z,57.65
2019-05-20T12:28:44.340Z,58.00
2019-05-20T12:31:17.088Z,60.30
2019-05-20T12:33:49.912Z,62.08
2019-05-20T12:36:22.668Z,57.30
2019-05-20T12:38:55.514Z,57.93
2019-05-20T12:41:28.327Z,60.33
2019-05-20T12:44:12.218Z,60.63
2019-05-20T12:46:35.593Z,59.75
2019-05-20T12:49:09.565Z,58.92
2019-05-20T12:51:43.568Z,58.83
2019-05-20T12:54:16.415Z,59.67
2019-05-20T12:56:49.153Z,56.42
2019-05-20T12:59:21.767Z,55.67
2019-05-20T13:01:54.643Z,56.08
2019-05-20T13:04:27.408Z,56.35
2019-05-20T13:07:00.178Z,57.67
2019-05-20T13:09:33.930Z,57.40
2019-05-20T13:12:06.769Z,58.30
2019-05-20T13:14:39.617Z,57.35
2019-05-20T13:17:12.291Z,54.67
2019-05-20T13:19:46.144Z,52.93
2019-05-20T13:22:19.027Z,55.20
2019-05-20T13:24:51.855Z,52.80
2019-05-20T13:27:24.527Z,52.35
2019-05-20T13:29:58.333Z,52.67
2019-05-20T13:32:30.935Z,51.68
2019-05-20T13:35:03.894Z,51.33
2019-05-20T13:37:37.078Z,53.92
2019-05-20T13:40:10.128Z,54.95
2019-05-20T13:42:43.424Z,58.80
2019-05-20T13:45:16.543Z,56.15
2019-05-20T13:47:49.205Z,58.80
2019-05-20T13:50:21.937Z,59.63
2019-05-20T13:52:54.701Z,58.63
2019-05-20T13:55:28.478Z,58.48
2019-05-20T13:58:02.403Z,58.55
2019-05-20T14:00:47.444Z,59.35
2019-05-20T14:03:21.146Z,57.48
2019-05-20T14:05:53.890Z,57.00
2019-05-20T14:08:26.693Z,59.35
2019-05-20T14:11:04.382Z,57.15
2019-05-20T14:13:33.998Z,57.85
2019-05-20T14:16:06.950Z,56.42
2019-05-20T14:18:39.713Z,59.70
2019-05-20T14:21:13.705Z,56.77
2019-05-20T14:23:46.468Z,57.90
2019-05-20T14:26:19.257Z,56.42
2019-05-20T14:28:52.186Z,55.92
2019-05-20T14:31:24.997Z,54.03
2019-05-20T14:33:59.644Z,53.13
2019-05-20T14:36:40.462Z,52.08
2019-05-20T14:39:08.268Z,55.08
2019-05-20T14:41:41.361Z,54.63
2019-05-20T14:44:15.294Z,55.73
2019-05-20T14:46:48.229Z,55.20
2019-05-20T14:49:22.263Z,54.05
2019-05-20T14:51:55.213Z,54.20
2019-05-20T14:54:28.051Z,55.90
2019-05-20T14:57:00.830Z,54.15
2019-05-20T14:59:33.710Z,53.28
2019-05-20T15:02:06.440Z,52.53
2019-05-20T15:04:39.234Z,54.67
2019-05-20T15:07:28.437Z,53.85
2019-05-20T15:09:48.466Z,54.35
2019-05-20T15:12:21.270Z,54.63
2019-05-20T15:14:55.303Z,54.13
2019-05-20T15:17:28.149Z,55.03
2019-05-20T15:20:01.886Z,56.30
2019-05-20T15:22:35.696Z,54.73
2019-05-20T15:25:10.782Z,54.80
2019-05-20T15:27:43.730Z,55.88
2019-05-20T15:30:17.553Z,54.38
2019-05-20T15:32:50.294Z,54.18
2019-05-20T15:35:24.286Z,55.65
2019-05-20T15:37:57.000Z,58.48
2019-05-20T15:40:30.734Z,54.42
2019-05-20T15:43:03.478Z,55.23
2019-05-20T15:45:37.311Z,55.73
2019-05-20T15:48:10.190Z,54.03
2019-05-20T15:50:43.697Z,54.98
2019-05-20T15:53:17.626Z,54.55
2019-05-20T15:55:52.076Z,51.75
2019-05-20T15:58:24.826Z,54.60
2019-05-20T16:00:59.354Z,54.70
2019-05-20T16:03:32.254Z,54.40
2019-05-20T16:06:05.722Z,52.08
2019-05-20T16:08:38.443Z,52.55
2019-05-20T16:11:11.233Z,52.58
2019-05-20T16:13:44.232Z,50.67
2019-05-20T16:16:17.020Z,50.83
2019-05-20T16:18:49.842Z,50.95
2019-05-20T16:21:22.681Z,50.80
2019-05-20T16:23:55.511Z,50.67
2019-05-20T16:26:30.032Z,49.98
2019-05-20T16:29:03.185Z,49.20
2019-05-20T16:31:36.161Z,48.35
2019-05-20T16:34:11.103Z,48.63
2019-05-20T16:36:46.537Z,48.30
2019-05-20T16:39:20.257Z,48.80
2019-05-20T16:41:53.015Z,48.55
2019-05-20T16:44:27.080Z,46.92
2019-05-20T16:46:59.710Z,45.78
2019-05-20T16:49:33.550Z,47.17
2019-05-20T16:52:06.332Z,44.98
2019-05-20T16:54:39.393Z,47.10
2019-05-20T16:57:14.220Z,46.90
2019-05-20T16:59:46.961Z,47.08
2019-05-20T17:02:21.380Z,50.45
2019-05-20T17:04:54.165Z,47.13
2019-05-20T17:07:26.927Z,47.33
2019-05-20T17:09:59.768Z,46.35
2019-05-20T17:12:32.487Z,46.18
2019-05-20T17:15:06.021Z,46.85
2019-05-20T17:17:42.546Z,43.75
2019-05-20T17:20:27.618Z,43.50
2019-05-20T17:23:02.258Z,43.92
2019-05-20T17:25:35.323Z,43.55
2019-05-20T17:28:09.207Z,44.18
2019-05-20T17:30:46.111Z,42.50
2019-05-20T17:33:20.222Z,41.95
2019-05-20T17:35:55.098Z,40.80
2019-05-20T17:38:28.028Z,40.10
2019-05-20T17:41:00.906Z,38.58
2019-05-20T17:43:33.910Z,38.05
2019-05-20T17:46:07.010Z,38.33
2019-05-20T17:48:39.815Z,38.25
2019-05-20T17:51:14.486Z,36.00
2019-05-20T17:53:47.247Z,38.20
2019-05-20T17:56:20.301Z,38.05
2019-05-20T17:58:56.227Z,37.80
2019-05-20T18:01:28.862Z,38.70
2019-05-20T18:04:01.493Z,37.53
2019-05-20T18:06:34.195Z,38.25
2019-05-20T18:09:07.872Z,38.25
2019-05-20T18:11:40.722Z,39.00
2019-05-20T18:14:14.457Z,37.83
2019-05-20T18:16:47.259Z,38.80
2019-05-20T18:19:19.987Z,40.20
2019-05-20T18:21:52.902Z,38.55
2019-05-20T18:24:25.625Z,38.98
2019-05-20T18:27:00.266Z,37.23
2019-05-20T18:29:34.346Z,39.20
2019-05-20T18:32:07.123Z,37.90
2019-05-20T18:34:40.986Z,38.95
2019-05-20T18:37:33.184Z,39.60
2019-05-20T18:40:13.943Z,38.20
2019-05-20T18:42:40.818Z,39.15
2019-05-20T18:45:13.730Z,39.45
2019-05-20T18:47:46.630Z,38.10
2019-05-20T18:50:19.383Z,38.53
2019-05-20T18:52:52.135Z,38.73
2019-05-20T18:55:25.984Z,37.85
2019-05-20T18:57:59.879Z,37.38
2019-05-20T19:00:32.568Z,37.17
2019-05-20T19:03:05.412Z,37.03
2019-05-20T19:05:40.047Z,37.95
2019-05-20T19:08:13.135Z,36.60
2019-05-20T19:10:47.823Z,39.30
2019-05-20T19:13:20.649Z,38.20
2019-05-20T19:15:53.324Z,36.68
2019-05-20T19:18:27.227Z,37.25
2019-05-20T19:21:00.059Z,37.23
2019-05-20T19:23:32.977Z,40.65
2019-05-20T19:26:05.897Z,38.70
2019-05-20T19:28:38.768Z,36.53
2019-05-20T19:31:11.725Z,38.23
2019-05-20T19:33:44.598Z,37.40
2019-05-20T19:36:17.429Z,37.85
2019-05-20T19:38:51.578Z,36.05
2019-05-20T19:41:24.345Z,37.73
2019-05-20T19:43:57.320Z,37.53
2019-05-20T19:46:30.203Z,39.78
2019-05-20T19:49:03.028Z,39.67
2019-05-20T19:51:36.095Z,41.25
2019-05-20T19:54:08.989Z,39.55
2019-05-20T19:56:41.943Z,40.92
2019-05-20T19:59:14.740Z,40.83
2019-05-20T20:01:48.958Z,41.77
2019-05-20T20:04:23.435Z,42.43
2019-05-20T20:06:57.501Z,41.63
2019-05-20T20:09:32.060Z,44.83
2019-05-20T20:12:04.903Z,41.75
2019-05-20T20:14:37.508Z,41.53
2019-05-20T20:17:11.722Z,42.08
2019-05-20T20:19:44.387Z,40.45
2019-05-20T20:22:17.260Z,41.45
2019-05-20T20:24:50.985Z,41.33
2019-05-20T20:27:23.657Z,40.58
2019-05-20T20:29:58.340Z,41.05
2019-05-20T20:32:37.927Z,41.53
2019-05-20T20:35:06.627Z,41.75
2019-05-20T20:37:39.486Z,40.95
2019-05-20T20:40:12.684Z,41.23
2019-05-20T20:42:45.418Z,41.95
2019-05-20T20:45:18.242Z,40.23
2019-05-20T20:47:51.979Z,41.30
2019-05-20T20:50:24.756Z,39.00
2019-05-20T20:52:57.381Z,44.30
2019-05-20T20:55:30.118Z,40.73
2019-05-20T20:58:02.834Z,42.55
2019-05-20T21:00:35.572Z,41.30
2019-05-20T21:03:08.315Z,42.27
2019-05-20T21:05:41.154Z,41.55
2019-05-20T21:08:15.717Z,46.10
2019-05-20T21:10:49.713Z,43.90
2019-05-20T21:13:22.450Z,42.62
2019-05-20T21:15:58.467Z,42.75
2019-05-20T21:18:29.825Z,43.33
2019-05-20T21:21:02.618Z,44.67
2019-05-20T21:23:38.074Z,47.05
2019-05-20T21:26:10.901Z,44.60
2019-05-20T21:28:43.625Z,48.28
2019-05-20T21:31:16.238Z,47.67
2019-05-20T21:33:51.690Z,49.65
2019-05-20T21:36:24.419Z,49.23
2019-05-20T21:38:58.267Z,49.35
2019-05-20T21:41:32.940Z,50.63
2019-05-20T21:44:05.898Z,53.28
2019-05-20T21:47:09.396Z,51.37
2019-05-20T21:49:42.022Z,54.48
2019-05-20T21:52:14.825Z,56.18
2019-05-20T21:54:47.535Z,59.27
2019-05-20T21:57:24.856Z,60.73
2019-05-20T21:59:57.685Z,59.93
2019-05-20T22:02:33.159Z,65.70
2019-05-20T22:05:06.229Z,64.25
2019-05-20T22:07:39.024Z,69.67
2019-05-20T22:10:13.565Z,70.00
2019-05-20T22:12:46.411Z,74.70
2019-05-20T22:15:20.350Z,70.67
2019-05-20T22:17:52.941Z,78.47
2019-05-20T22:20:25.631Z,80.05
2019-05-20T22:23:16.477Z,81.05
2019-05-20T22:25:50.120Z,82.57
2019-05-20T22:28:22.789Z,82.60
2019-05-20T22:30:55.520Z,83.00
2019-05-20T22:33:40.487Z,84.97
2019-05-20T22:36:03.886Z,84.83
2019-05-20T22:38:37.719Z,83.97
2019-05-20T22:41:10.349Z,85.97
2019-05-20T22:43:43.144Z,87.92
2019-05-20T22:46:15.884Z,88.25
2019-05-20T22:48:48.574Z,88.35
2019-05-20T22:51:21.426Z,91.75
2019-05-20T22:53:54.136Z,91.95
2019-05-20T22:56:26.940Z,94.13
2019-05-20T22:58:59.486Z,94.07
2019-05-20T23:01:32.229Z,97.35
2019-05-20T23:04:06.106Z,102.90
2019-05-20T23:06:38.766Z,103.02
2019-05-20T23:09:14.790Z,106.12
2019-05-20T23:11:45.993Z,110.72
2019-05-20T23:14:18.655Z,105.58
2019-05-20T23:16:51.637Z,109.95
2019-05-20T23:19:24.566Z,109.40
2019-05-20T23:21:58.450Z,114.08
2019-05-20T23:24:31.016Z,113.00
2019-05-20T23:27:05.566Z,114.67
2019-05-20T23:29:38.202Z,110.48
2019-05-20T23:32:11.942Z,110.65
2019-05-20T23:34:44.765Z,107.87
2019-05-20T23:37:17.366Z,112.08
2019-05-20T23:39:50.451Z,107.47
2019-05-20T23:42:23.285Z,108.60
2019-05-20T23:44:55.881Z,109.60
2019-05-20T23:47:28.677Z,111.47
2019-05-20T23:50:02.415Z,110.63
2019-05-20T23:52:35.208Z,108.47
2019-05-20T23:55:08.585Z,95.95
2019-05-20T23:57:41.252Z,96.85
